sensor_id;sensor_type;location;lat;lon;timestamp;temperature;humidity
25214;DHT22;13160;51.834;4.706;2022-12-08T00:00:18;6.00;99.90
25214;DHT22;13160;51.834;4.706;2022-12-08T00:02:47;6.00;99.90
25214;DHT22;13160;51.834;4.706;2022-12-08T00:05:18;6.00;99.90
25214;DHT22;13160;51.834;4.706;2022-12-08T00:08:04;6.00;99.90
25214;DHT22;13160;51.834;4.706;2022-12-08T00:10:50;6.00;99.90
25214;DHT22;13160;51.834;4.706;2022-12-08T00:13:19;6.00;99.90
25214;DHT22;13160;51.834;4.706;2022-12-08T00:15:48;6.00;99.90
25214;DHT22;13160;51.834;4.706;2022-12-08T00:18:16;6.00;99.90
25214;DHT22;13160;51.834;4.706;2022-12-08T00:20:46;6.10;99.90
25214;DHT22;13160;51.834;4.706;2022-12-08T00:23:22;6.10;99.90
25214;DHT22;13160;51.834;4.706;2022-12-08T00:25:50;6.00;99.90
25214;DHT22;13160;51.834;4.706;2022-12-08T00:28:19;6.00;99.90
25214;DHT22;13160;51.834;4.706;2022-12-08T00:30:47;6.00;99.90
25214;DHT22;13160;51.834;4.706;2022-12-08T00:33:16;6.00;99.90
25214;DHT22;13160;51.834;4.706;2022-12-08T00:35:46;6.00;99.90
25214;DHT22;13160;51.834;4.706;2022-12-08T00:38:15;6.00;99.90
25214;DHT22;13160;51.834;4.706;2022-12-08T00:40:44;6.00;99.90
25214;DHT22;13160;51.834;4.706;2022-12-08T00:43:13;5.90;99.90
25214;DHT22;13160;51.834;4.706;2022-12-08T00:45:42;6.00;99.90
25214;DHT22;13160;51.834;4.706;2022-12-08T00:48:10;6.00;99.90
25214;DHT22;13160;51.834;4.706;2022-12-08T00:50:39;6.00;99.90
25214;DHT22;13160;51.834;4.706;2022-12-08T00:53:09;5.90;99.90
25214;DHT22;13160;51.834;4.706;2022-12-08T00:55:37;5.90;99.90
25214;DHT22;13160;51.834;4.706;2022-12-08T00:58:06;5.90;99.90
25214;DHT22;13160;51.834;4.706;2022-12-08T01:00:34;5.90;99.90
25214;DHT22;13160;51.834;4.706;2022-12-08T01:03:02;5.90;99.90
25214;DHT22;13160;51.834;4.706;2022-12-08T01:05:30;5.90;99.90
25214;DHT22;13160;51.834;4.706;2022-12-08T01:07:59;5.90;99.90
25214;DHT22;13160;51.834;4.706;2022-12-08T01:10:29;5.90;99.90
25214;DHT22;13160;51.834;4.706;2022-12-08T01:12:58;5.90;99.90
25214;DHT22;13160;51.834;4.706;2022-12-08T01:15:26;5.90;99.90
25214;DHT22;13160;51.834;4.706;2022-12-08T01:17:54;5.90;99.90
25214;DHT22;13160;51.834;4.706;2022-12-08T01:20:23;5.90;99.90
25214;DHT22;13160;51.834;4.706;2022-12-08T01:22:52;5.90;99.90
25214;DHT22;13160;51.834;4.706;2022-12-08T01:25:21;5.80;99.90
25214;DHT22;13160;51.834;4.706;2022-12-08T01:27:52;5.90;99.90
25214;DHT22;13160;51.834;4.706;2022-12-08T01:30:20;5.90;99.90
25214;DHT22;13160;51.834;4.706;2022-12-08T01:32:49;5.90;99.90
25214;DHT22;13160;51.834;4.706;2022-12-08T01:35:18;5.80;99.90
25214;DHT22;13160;51.834;4.706;2022-12-08T01:37:47;5.80;99.90
25214;DHT22;13160;51.834;4.706;2022-12-08T01:40:17;5.80;99.90
25214;DHT22;13160;51.834;4.706;2022-12-08T01:42:45;5.80;99.90
25214;DHT22;13160;51.834;4.706;2022-12-08T01:45:21;5.80;99.90
25214;DHT22;13160;51.834;4.706;2022-12-08T01:47:54;5.80;99.90
25214;DHT22;13160;51.834;4.706;2022-12-08T01:50:26;5.80;99.90
25214;DHT22;13160;51.834;4.706;2022-12-08T01:52:57;5.80;99.90
25214;DHT22;13160;51.834;4.706;2022-12-08T01:55:31;5.80;99.90
25214;DHT22;13160;51.834;4.706;2022-12-08T01:58:09;5.80;99.90
25214;DHT22;13160;51.834;4.706;2022-12-08T02:00:41;5.80;99.90
25214;DHT22;13160;51.834;4.706;2022-12-08T02:03:17;5.80;99.90
25214;DHT22;13160;51.834;4.706;2022-12-08T02:05:49;5.80;99.90
25214;DHT22;13160;51.834;4.706;2022-12-08T02:08:19;5.80;99.90
25214;DHT22;13160;51.834;4.706;2022-12-08T02:10:50;5.80;99.90
25214;DHT22;13160;51.834;4.706;2022-12-08T02:13:20;5.80;99.90
25214;DHT22;13160;51.834;4.706;2022-12-08T02:15:57;5.80;99.90
25214;DHT22;13160;51.834;4.706;2022-12-08T02:18:41;5.80;99.90
25214;DHT22;13160;51.834;4.706;2022-12-08T02:21:49;5.80;99.90
25214;DHT22;13160;51.834;4.706;2022-12-08T02:24:28;5.80;99.90
25214;DHT22;13160;51.834;4.706;2022-12-08T02:27:21;5.80;99.90
25214;DHT22;13160;51.834;4.706;2022-12-08T02:30:21;5.80;99.90
25214;DHT22;13160;51.834;4.706;2022-12-08T02:36:22;5.80;99.90
25214;DHT22;13160;51.834;4.706;2022-12-08T02:38:59;5.80;99.90
25214;DHT22;13160;51.834;4.706;2022-12-08T02:41:35;5.80;99.90
25214;DHT22;13160;51.834;4.706;2022-12-08T02:44:11;5.80;99.90
25214;DHT22;13160;51.834;4.706;2022-12-08T02:46:47;5.80;99.90
25214;DHT22;13160;51.834;4.706;2022-12-08T02:49:18;5.80;99.90
25214;DHT22;13160;51.834;4.706;2022-12-08T02:51:48;5.80;99.90
25214;DHT22;13160;51.834;4.706;2022-12-08T02:54:17;5.90;99.90
25214;DHT22;13160;51.834;4.706;2022-12-08T02:57:11;5.90;99.90
25214;DHT22;13160;51.834;4.706;2022-12-08T02:59:58;5.90;99.90
25214;DHT22;13160;51.834;4.706;2022-12-08T03:02:43;5.90;99.90
25214;DHT22;13160;51.834;4.706;2022-12-08T03:05:28;5.90;99.90
25214;DHT22;13160;51.834;4.706;2022-12-08T03:08:15;5.90;99.90
25214;DHT22;13160;51.834;4.706;2022-12-08T03:10:51;5.90;99.90
25214;DHT22;13160;51.834;4.706;2022-12-08T03:13:27;5.90;99.90
25214;DHT22;13160;51.834;4.706;2022-12-08T03:16:02;5.90;99.90
25214;DHT22;13160;51.834;4.706;2022-12-08T03:18:33;5.90;99.90
25214;DHT22;13160;51.834;4.706;2022-12-08T03:21:14;5.90;99.90
25214;DHT22;13160;51.834;4.706;2022-12-08T03:23:48;5.90;99.90
25214;DHT22;13160;51.834;4.706;2022-12-08T03:26:24;5.90;99.90
25214;DHT22;13160;51.834;4.706;2022-12-08T03:28:56;5.90;99.90
25214;DHT22;13160;51.834;4.706;2022-12-08T03:31:28;5.90;99.90
25214;DHT22;13160;51.834;4.706;2022-12-08T03:34:02;5.90;99.90
25214;DHT22;13160;51.834;4.706;2022-12-08T03:36:32;6.00;99.90
25214;DHT22;13160;51.834;4.706;2022-12-08T03:39:02;6.00;99.90
25214;DHT22;13160;51.834;4.706;2022-12-08T03:41:31;6.00;99.90
25214;DHT22;13160;51.834;4.706;2022-12-08T03:44:00;6.00;99.90
25214;DHT22;13160;51.834;4.706;2022-12-08T03:46:30;6.00;99.90
25214;DHT22;13160;51.834;4.706;2022-12-08T03:48:59;6.00;99.90
25214;DHT22;13160;51.834;4.706;2022-12-08T03:51:27;6.00;99.90
25214;DHT22;13160;51.834;4.706;2022-12-08T03:53:56;6.00;99.90
25214;DHT22;13160;51.834;4.706;2022-12-08T03:56:28;6.00;99.90
25214;DHT22;13160;51.834;4.706;2022-12-08T03:58:58;6.00;99.90
25214;DHT22;13160;51.834;4.706;2022-12-08T04:01:27;6.00;99.90
25214;DHT22;13160;51.834;4.706;2022-12-08T04:03:55;6.00;99.90
25214;DHT22;13160;51.834;4.706;2022-12-08T04:06:24;6.00;99.90
25214;DHT22;13160;51.834;4.706;2022-12-08T04:08:53;6.00;99.90
25214;DHT22;13160;51.834;4.706;2022-12-08T04:11:21;6.00;99.90
25214;DHT22;13160;51.834;4.706;2022-12-08T04:13:51;6.00;99.90
25214;DHT22;13160;51.834;4.706;2022-12-08T04:16:21;6.00;99.90
25214;DHT22;13160;51.834;4.706;2022-12-08T04:18:52;6.00;99.90
25214;DHT22;13160;51.834;4.706;2022-12-08T04:21:20;5.90;99.90
25214;DHT22;13160;51.834;4.706;2022-12-08T04:23:49;5.90;99.90
25214;DHT22;13160;51.834;4.706;2022-12-08T04:26:24;6.00;99.90
25214;DHT22;13160;51.834;4.706;2022-12-08T04:28:55;5.90;99.90
25214;DHT22;13160;51.834;4.706;2022-12-08T04:31:23;5.90;99.90
25214;DHT22;13160;51.834;4.706;2022-12-08T04:33:52;5.90;99.90
25214;DHT22;13160;51.834;4.706;2022-12-08T04:36:20;5.90;99.90
25214;DHT22;13160;51.834;4.706;2022-12-08T04:38:49;5.90;99.90
25214;DHT22;13160;51.834;4.706;2022-12-08T04:41:17;5.90;99.90
25214;DHT22;13160;51.834;4.706;2022-12-08T04:43:45;6.00;99.90
25214;DHT22;13160;51.834;4.706;2022-12-08T04:46:15;5.90;99.90
25214;DHT22;13160;51.834;4.706;2022-12-08T04:48:44;5.90;99.90
25214;DHT22;13160;51.834;4.706;2022-12-08T04:51:15;5.90;99.90
25214;DHT22;13160;51.834;4.706;2022-12-08T04:53:45;5.90;99.90
25214;DHT22;13160;51.834;4.706;2022-12-08T04:56:15;5.80;99.90
25214;DHT22;13160;51.834;4.706;2022-12-08T04:58:46;5.80;99.90
25214;DHT22;13160;51.834;4.706;2022-12-08T05:01:16;5.80;99.90
25214;DHT22;13160;51.834;4.706;2022-12-08T05:03:44;5.70;99.90
25214;DHT22;13160;51.834;4.706;2022-12-08T05:06:15;5.70;99.90
25214;DHT22;13160;51.834;4.706;2022-12-08T05:08:44;5.60;99.90
25214;DHT22;13160;51.834;4.706;2022-12-08T05:11:12;5.60;99.90
25214;DHT22;13160;51.834;4.706;2022-12-08T05:13:41;5.60;99.90
25214;DHT22;13160;51.834;4.706;2022-12-08T05:16:11;5.50;99.90
25214;DHT22;13160;51.834;4.706;2022-12-08T05:18:42;5.50;99.90
25214;DHT22;13160;51.834;4.706;2022-12-08T05:21:11;5.50;99.90
25214;DHT22;13160;51.834;4.706;2022-12-08T05:23:43;5.50;99.90
25214;DHT22;13160;51.834;4.706;2022-12-08T05:26:11;5.50;99.90
25214;DHT22;13160;51.834;4.706;2022-12-08T05:28:43;5.60;99.90
25214;DHT22;13160;51.834;4.706;2022-12-08T05:31:12;5.60;99.90
25214;DHT22;13160;51.834;4.706;2022-12-08T05:33:43;5.60;99.90
25214;DHT22;13160;51.834;4.706;2022-12-08T05:36:15;5.60;99.90
25214;DHT22;13160;51.834;4.706;2022-12-08T05:38:44;5.60;99.90
25214;DHT22;13160;51.834;4.706;2022-12-08T05:41:15;5.60;99.90
25214;DHT22;13160;51.834;4.706;2022-12-08T05:43:45;5.60;99.90
25214;DHT22;13160;51.834;4.706;2022-12-08T05:46:15;5.60;99.90
25214;DHT22;13160;51.834;4.706;2022-12-08T05:48:45;5.60;99.90
25214;DHT22;13160;51.834;4.706;2022-12-08T05:51:21;5.70;99.90
25214;DHT22;13160;51.834;4.706;2022-12-08T05:53:51;5.70;99.90
25214;DHT22;13160;51.834;4.706;2022-12-08T05:56:20;5.70;99.90
25214;DHT22;13160;51.834;4.706;2022-12-08T05:58:49;5.70;99.90
25214;DHT22;13160;51.834;4.706;2022-12-08T06:01:23;5.70;99.90
25214;DHT22;13160;51.834;4.706;2022-12-08T06:03:55;5.70;99.90
25214;DHT22;13160;51.834;4.706;2022-12-08T06:06:24;5.70;99.90
25214;DHT22;13160;51.834;4.706;2022-12-08T06:08:53;5.70;99.90
25214;DHT22;13160;51.834;4.706;2022-12-08T06:11:23;5.70;99.90
25214;DHT22;13160;51.834;4.706;2022-12-08T06:13:53;5.70;99.90
25214;DHT22;13160;51.834;4.706;2022-12-08T06:16:23;5.70;99.90
25214;DHT22;13160;51.834;4.706;2022-12-08T06:18:53;5.70;99.90
25214;DHT22;13160;51.834;4.706;2022-12-08T06:21:22;5.70;99.90
25214;DHT22;13160;51.834;4.706;2022-12-08T06:23:52;5.70;99.90
25214;DHT22;13160;51.834;4.706;2022-12-08T06:26:21;5.70;99.90
25214;DHT22;13160;51.834;4.706;2022-12-08T06:28:50;5.60;99.90
25214;DHT22;13160;51.834;4.706;2022-12-08T06:31:19;5.60;99.90
25214;DHT22;13160;51.834;4.706;2022-12-08T06:33:49;5.60;99.90
25214;DHT22;13160;51.834;4.706;2022-12-08T06:36:22;5.60;99.90
25214;DHT22;13160;51.834;4.706;2022-12-08T06:38:51;5.50;99.90
25214;DHT22;13160;51.834;4.706;2022-12-08T06:41:20;5.50;99.90
25214;DHT22;13160;51.834;4.706;2022-12-08T06:43:49;5.50;99.90
25214;DHT22;13160;51.834;4.706;2022-12-08T06:46:19;5.50;99.90
25214;DHT22;13160;51.834;4.706;2022-12-08T06:48:48;5.50;99.90
25214;DHT22;13160;51.834;4.706;2022-12-08T06:51:18;5.50;99.90
25214;DHT22;13160;51.834;4.706;2022-12-08T06:53:49;5.40;99.90
25214;DHT22;13160;51.834;4.706;2022-12-08T06:56:18;5.40;99.90
25214;DHT22;13160;51.834;4.706;2022-12-08T06:58:48;5.30;99.90
25214;DHT22;13160;51.834;4.706;2022-12-08T07:01:19;5.30;99.90
25214;DHT22;13160;51.834;4.706;2022-12-08T07:03:47;5.30;99.90
25214;DHT22;13160;51.834;4.706;2022-12-08T07:06:20;5.30;99.90
25214;DHT22;13160;51.834;4.706;2022-12-08T07:08:50;5.30;99.90
25214;DHT22;13160;51.834;4.706;2022-12-08T07:11:19;5.30;99.90
25214;DHT22;13160;51.834;4.706;2022-12-08T07:13:48;5.30;99.90
25214;DHT22;13160;51.834;4.706;2022-12-08T07:16:18;5.30;99.90
25214;DHT22;13160;51.834;4.706;2022-12-08T07:18:46;5.30;99.90
25214;DHT22;13160;51.834;4.706;2022-12-08T07:21:16;5.30;99.90
25214;DHT22;13160;51.834;4.706;2022-12-08T07:23:48;5.30;99.90
25214;DHT22;13160;51.834;4.706;2022-12-08T07:26:23;5.30;99.90
25214;DHT22;13160;51.834;4.706;2022-12-08T07:28:54;5.30;99.90
25214;DHT22;13160;51.834;4.706;2022-12-08T07:31:23;5.30;99.90
25214;DHT22;13160;51.834;4.706;2022-12-08T07:33:53;5.30;99.90
25214;DHT22;13160;51.834;4.706;2022-12-08T07:36:22;5.30;99.90
25214;DHT22;13160;51.834;4.706;2022-12-08T07:38:53;5.30;99.90
25214;DHT22;13160;51.834;4.706;2022-12-08T07:41:23;5.40;99.90
25214;DHT22;13160;51.834;4.706;2022-12-08T07:43:53;5.40;99.90
25214;DHT22;13160;51.834;4.706;2022-12-08T07:46:24;5.40;99.90
25214;DHT22;13160;51.834;4.706;2022-12-08T07:48:53;5.40;99.90
25214;DHT22;13160;51.834;4.706;2022-12-08T07:51:23;5.40;99.90
25214;DHT22;13160;51.834;4.706;2022-12-08T07:53:53;5.40;99.90
25214;DHT22;13160;51.834;4.706;2022-12-08T07:56:22;5.40;99.90
25214;DHT22;13160;51.834;4.706;2022-12-08T07:58:50;5.40;99.90
25214;DHT22;13160;51.834;4.706;2022-12-08T08:01:23;5.40;99.90
25214;DHT22;13160;51.834;4.706;2022-12-08T08:03:54;5.50;99.90
25214;DHT22;13160;51.834;4.706;2022-12-08T08:06:24;5.50;99.90
25214;DHT22;13160;51.834;4.706;2022-12-08T08:08:54;5.50;99.90
25214;DHT22;13160;51.834;4.706;2022-12-08T08:11:23;5.50;99.90
25214;DHT22;13160;51.834;4.706;2022-12-08T08:13:52;5.50;99.90
25214;DHT22;13160;51.834;4.706;2022-12-08T08:16:20;5.50;99.90
25214;DHT22;13160;51.834;4.706;2022-12-08T08:18:49;5.50;99.90
25214;DHT22;13160;51.834;4.706;2022-12-08T08:21:19;5.50;99.90
25214;DHT22;13160;51.834;4.706;2022-12-08T08:24:10;5.50;99.90
25214;DHT22;13160;51.834;4.706;2022-12-08T08:26:38;5.50;99.90
25214;DHT22;13160;51.834;4.706;2022-12-08T08:29:07;5.60;99.90
25214;DHT22;13160;51.834;4.706;2022-12-08T08:31:36;5.50;99.90
25214;DHT22;13160;51.834;4.706;2022-12-08T08:34:05;5.50;99.90
25214;DHT22;13160;51.834;4.706;2022-12-08T08:36:34;5.60;99.90
25214;DHT22;13160;51.834;4.706;2022-12-08T08:39:03;5.60;99.90
25214;DHT22;13160;51.834;4.706;2022-12-08T08:41:33;5.60;99.90
25214;DHT22;13160;51.834;4.706;2022-12-08T08:44:03;5.60;99.90
25214;DHT22;13160;51.834;4.706;2022-12-08T08:46:32;5.60;99.90
25214;DHT22;13160;51.834;4.706;2022-12-08T08:49:01;5.60;99.90
25214;DHT22;13160;51.834;4.706;2022-12-08T08:51:29;5.60;99.90
25214;DHT22;13160;51.834;4.706;2022-12-08T08:53:58;5.60;99.90
25214;DHT22;13160;51.834;4.706;2022-12-08T08:56:26;5.60;99.90
25214;DHT22;13160;51.834;4.706;2022-12-08T08:58:57;5.60;99.90
25214;DHT22;13160;51.834;4.706;2022-12-08T09:01:27;5.60;99.90
25214;DHT22;13160;51.834;4.706;2022-12-08T09:03:56;5.60;99.90
25214;DHT22;13160;51.834;4.706;2022-12-08T09:06:25;5.60;99.90
25214;DHT22;13160;51.834;4.706;2022-12-08T09:08:55;5.60;99.90
25214;DHT22;13160;51.834;4.706;2022-12-08T09:11:23;5.60;99.90
25214;DHT22;13160;51.834;4.706;2022-12-08T09:13:52;5.60;99.90
25214;DHT22;13160;51.834;4.706;2022-12-08T09:16:23;5.60;99.90
25214;DHT22;13160;51.834;4.706;2022-12-08T09:18:52;5.60;99.90
25214;DHT22;13160;51.834;4.706;2022-12-08T09:21:25;5.60;99.90
25214;DHT22;13160;51.834;4.706;2022-12-08T09:23:55;5.60;99.90
25214;DHT22;13160;51.834;4.706;2022-12-08T09:26:25;5.60;99.90
25214;DHT22;13160;51.834;4.706;2022-12-08T09:28:55;5.60;99.90
25214;DHT22;13160;51.834;4.706;2022-12-08T09:31:25;5.60;99.90
25214;DHT22;13160;51.834;4.706;2022-12-08T09:33:54;5.60;99.90
25214;DHT22;13160;51.834;4.706;2022-12-08T09:36:22;5.50;99.90
25214;DHT22;13160;51.834;4.706;2022-12-08T09:38:51;5.50;99.90
25214;DHT22;13160;51.834;4.706;2022-12-08T09:41:30;5.50;99.90
25214;DHT22;13160;51.834;4.706;2022-12-08T09:44:42;5.50;99.90
25214;DHT22;13160;51.834;4.706;2022-12-08T09:47:20;5.50;99.90
25214;DHT22;13160;51.834;4.706;2022-12-08T09:49:57;5.40;99.90
25214;DHT22;13160;51.834;4.706;2022-12-08T09:52:31;5.50;99.90
25214;DHT22;13160;51.834;4.706;2022-12-08T09:55:08;5.40;99.90
25214;DHT22;13160;51.834;4.706;2022-12-08T09:57:40;5.40;99.90
25214;DHT22;13160;51.834;4.706;2022-12-08T10:00:11;5.40;99.90
25214;DHT22;13160;51.834;4.706;2022-12-08T10:02:43;5.40;99.90
25214;DHT22;13160;51.834;4.706;2022-12-08T10:05:13;5.50;99.90
25214;DHT22;13160;51.834;4.706;2022-12-08T10:07:45;5.50;99.90
25214;DHT22;13160;51.834;4.706;2022-12-08T10:10:24;5.50;99.90
25214;DHT22;13160;51.834;4.706;2022-12-08T10:13:01;5.50;99.90
25214;DHT22;13160;51.834;4.706;2022-12-08T10:15:40;5.50;99.90
25214;DHT22;13160;51.834;4.706;2022-12-08T10:18:17;5.50;99.90
25214;DHT22;13160;51.834;4.706;2022-12-08T10:20:49;5.60;99.90
25214;DHT22;13160;51.834;4.706;2022-12-08T10:23:26;5.60;99.90
25214;DHT22;13160;51.834;4.706;2022-12-08T10:26:00;5.60;99.90
25214;DHT22;13160;51.834;4.706;2022-12-08T10:28:32;5.60;99.90
25214;DHT22;13160;51.834;4.706;2022-12-08T10:31:14;5.50;99.90
25214;DHT22;13160;51.834;4.706;2022-12-08T10:33:48;5.50;99.90
25214;DHT22;13160;51.834;4.706;2022-12-08T10:36:21;5.50;99.90
25214;DHT22;13160;51.834;4.706;2022-12-08T10:38:50;5.50;99.90
25214;DHT22;13160;51.834;4.706;2022-12-08T10:41:18;5.50;99.90
25214;DHT22;13160;51.834;4.706;2022-12-08T10:43:49;5.50;99.90
25214;DHT22;13160;51.834;4.706;2022-12-08T10:46:23;5.60;99.90
25214;DHT22;13160;51.834;4.706;2022-12-08T10:49:09;5.60;99.90
25214;DHT22;13160;51.834;4.706;2022-12-08T10:51:42;5.60;99.90
25214;DHT22;13160;51.834;4.706;2022-12-08T10:54:25;5.60;99.90
25214;DHT22;13160;51.834;4.706;2022-12-08T10:56:56;5.60;99.90
25214;DHT22;13160;51.834;4.706;2022-12-08T10:59:25;5.60;99.90
25214;DHT22;13160;51.834;4.706;2022-12-08T11:01:55;5.70;99.90
25214;DHT22;13160;51.834;4.706;2022-12-08T11:04:33;5.70;99.90
25214;DHT22;13160;51.834;4.706;2022-12-08T11:07:04;5.70;99.90
25214;DHT22;13160;51.834;4.706;2022-12-08T11:09:38;5.70;99.90
25214;DHT22;13160;51.834;4.706;2022-12-08T11:12:13;5.80;99.90
25214;DHT22;13160;51.834;4.706;2022-12-08T11:14:48;5.80;99.90
25214;DHT22;13160;51.834;4.706;2022-12-08T11:17:24;5.90;99.90
25214;DHT22;13160;51.834;4.706;2022-12-08T11:20:03;5.90;99.90
25214;DHT22;13160;51.834;4.706;2022-12-08T11:22:51;5.90;99.90
25214;DHT22;13160;51.834;4.706;2022-12-08T11:25:22;6.00;99.90
25214;DHT22;13160;51.834;4.706;2022-12-08T11:27:53;6.00;99.90
25214;DHT22;13160;51.834;4.706;2022-12-08T11:30:27;6.10;99.90
25214;DHT22;13160;51.834;4.706;2022-12-08T11:33:02;6.10;99.90
25214;DHT22;13160;51.834;4.706;2022-12-08T11:35:38;6.10;99.90
25214;DHT22;13160;51.834;4.706;2022-12-08T11:38:11;6.10;99.90
25214;DHT22;13160;51.834;4.706;2022-12-08T11:40:51;6.10;99.90
25214;DHT22;13160;51.834;4.706;2022-12-08T11:43:28;6.10;99.90
25214;DHT22;13160;51.834;4.706;2022-12-08T11:46:10;6.10;99.90
25214;DHT22;13160;51.834;4.706;2022-12-08T11:48:45;6.10;99.90
25214;DHT22;13160;51.834;4.706;2022-12-08T11:51:19;6.10;99.90
25214;DHT22;13160;51.834;4.706;2022-12-08T11:54:02;6.10;99.90
25214;DHT22;13160;51.834;4.706;2022-12-08T11:56:44;6.10;99.90
25214;DHT22;13160;51.834;4.706;2022-12-08T11:59:20;6.10;99.90
25214;DHT22;13160;51.834;4.706;2022-12-08T12:01:52;6.10;99.90
25214;DHT22;13160;51.834;4.706;2022-12-08T12:04:25;6.10;99.90
25214;DHT22;13160;51.834;4.706;2022-12-08T12:10:38;6.10;99.90
25214;DHT22;13160;51.834;4.706;2022-12-08T12:13:26;6.20;99.90
25214;DHT22;13160;51.834;4.706;2022-12-08T12:19:11;6.10;99.90
25214;DHT22;13160;51.834;4.706;2022-12-08T12:21:44;6.20;99.90
25214;DHT22;13160;51.834;4.706;2022-12-08T12:24:18;6.20;99.90
25214;DHT22;13160;51.834;4.706;2022-12-08T12:26:57;6.20;99.90
25214;DHT22;13160;51.834;4.706;2022-12-08T12:29:28;6.20;99.90
25214;DHT22;13160;51.834;4.706;2022-12-08T12:32:02;6.20;99.90
25214;DHT22;13160;51.834;4.706;2022-12-08T12:34:34;6.20;99.90
25214;DHT22;13160;51.834;4.706;2022-12-08T12:37:07;6.20;99.90
25214;DHT22;13160;51.834;4.706;2022-12-08T12:39:52;6.10;99.90
25214;DHT22;13160;51.834;4.706;2022-12-08T12:42:39;6.10;99.90
25214;DHT22;13160;51.834;4.706;2022-12-08T12:45:22;6.00;99.90
25214;DHT22;13160;51.834;4.706;2022-12-08T12:48:18;6.00;99.90
25214;DHT22;13160;51.834;4.706;2022-12-08T12:50:49;6.00;99.90
25214;DHT22;13160;51.834;4.706;2022-12-08T12:53:46;6.00;99.90
25214;DHT22;13160;51.834;4.706;2022-12-08T12:56:47;6.00;99.90
25214;DHT22;13160;51.834;4.706;2022-12-08T13:02:22;6.00;99.90
25214;DHT22;13160;51.834;4.706;2022-12-08T13:04:58;6.00;99.90
25214;DHT22;13160;51.834;4.706;2022-12-08T13:07:30;6.00;99.90
25214;DHT22;13160;51.834;4.706;2022-12-08T13:10:06;6.00;99.90
25214;DHT22;13160;51.834;4.706;2022-12-08T13:12:43;6.00;99.90
25214;DHT22;13160;51.834;4.706;2022-12-08T13:15:17;6.00;99.90
25214;DHT22;13160;51.834;4.706;2022-12-08T13:17:48;6.00;99.90
25214;DHT22;13160;51.834;4.706;2022-12-08T13:20:20;6.00;99.90
25214;DHT22;13160;51.834;4.706;2022-12-08T13:23:12;6.00;99.90
25214;DHT22;13160;51.834;4.706;2022-12-08T13:26:12;5.90;99.90
25214;DHT22;13160;51.834;4.706;2022-12-08T13:29:15;5.90;99.90
25214;DHT22;13160;51.834;4.706;2022-12-08T13:31:48;5.80;99.90
25214;DHT22;13160;51.834;4.706;2022-12-08T13:34:30;5.80;99.90
25214;DHT22;13160;51.834;4.706;2022-12-08T13:37:19;5.80;99.90
25214;DHT22;13160;51.834;4.706;2022-12-08T13:39:52;5.70;99.90
25214;DHT22;13160;51.834;4.706;2022-12-08T13:42:28;5.70;99.90
25214;DHT22;13160;51.834;4.706;2022-12-08T13:45:12;5.70;99.90
25214;DHT22;13160;51.834;4.706;2022-12-08T13:48:12;5.70;99.90
25214;DHT22;13160;51.834;4.706;2022-12-08T13:51:08;5.70;99.90
25214;DHT22;13160;51.834;4.706;2022-12-08T13:54:05;5.60;99.90
25214;DHT22;13160;51.834;4.706;2022-12-08T13:56:55;5.60;99.90
25214;DHT22;13160;51.834;4.706;2022-12-08T13:59:43;5.70;99.90
25214;DHT22;13160;51.834;4.706;2022-12-08T14:02:22;5.70;99.90
25214;DHT22;13160;51.834;4.706;2022-12-08T14:04:55;5.70;99.90
25214;DHT22;13160;51.834;4.706;2022-12-08T14:07:44;5.70;99.90
25214;DHT22;13160;51.834;4.706;2022-12-08T14:10:17;5.70;99.90
25214;DHT22;13160;51.834;4.706;2022-12-08T14:12:53;5.70;99.90
25214;DHT22;13160;51.834;4.706;2022-12-08T14:15:25;5.70;99.90
25214;DHT22;13160;51.834;4.706;2022-12-08T14:18:01;5.70;99.90
25214;DHT22;13160;51.834;4.706;2022-12-08T14:20:32;5.70;99.90
25214;DHT22;13160;51.834;4.706;2022-12-08T14:23:21;5.70;99.90
25214;DHT22;13160;51.834;4.706;2022-12-08T14:25:50;5.80;99.90
25214;DHT22;13160;51.834;4.706;2022-12-08T14:28:18;5.80;99.90
25214;DHT22;13160;51.834;4.706;2022-12-08T14:30:49;5.70;99.90
25214;DHT22;13160;51.834;4.706;2022-12-08T14:33:19;5.80;99.90
25214;DHT22;13160;51.834;4.706;2022-12-08T14:35:52;5.70;99.90
25214;DHT22;13160;51.834;4.706;2022-12-08T14:38:24;5.70;99.90
25214;DHT22;13160;51.834;4.706;2022-12-08T14:41:01;5.70;99.90
25214;DHT22;13160;51.834;4.706;2022-12-08T14:43:31;5.70;99.90
25214;DHT22;13160;51.834;4.706;2022-12-08T14:46:02;5.60;99.90
25214;DHT22;13160;51.834;4.706;2022-12-08T14:48:41;5.60;99.90
25214;DHT22;13160;51.834;4.706;2022-12-08T14:51:18;5.60;99.90
25214;DHT22;13160;51.834;4.706;2022-12-08T14:53:53;5.60;99.90
25214;DHT22;13160;51.834;4.706;2022-12-08T14:56:47;5.60;99.90
25214;DHT22;13160;51.834;4.706;2022-12-08T14:59:19;5.50;99.90
25214;DHT22;13160;51.834;4.706;2022-12-08T15:01:51;5.50;99.90
25214;DHT22;13160;51.834;4.706;2022-12-08T15:04:26;5.50;99.90
25214;DHT22;13160;51.834;4.706;2022-12-08T15:06:59;5.50;99.90
25214;DHT22;13160;51.834;4.706;2022-12-08T15:09:35;5.50;99.90
25214;DHT22;13160;51.834;4.706;2022-12-08T15:12:18;5.50;99.90
25214;DHT22;13160;51.834;4.706;2022-12-08T15:14:55;5.50;99.90
25214;DHT22;13160;51.834;4.706;2022-12-08T15:17:29;5.40;99.90
25214;DHT22;13160;51.834;4.706;2022-12-08T15:20:03;5.40;99.90
25214;DHT22;13160;51.834;4.706;2022-12-08T15:22:33;5.30;99.90
25214;DHT22;13160;51.834;4.706;2022-12-08T15:25:09;5.30;99.90
25214;DHT22;13160;51.834;4.706;2022-12-08T15:27:39;5.20;99.90
25214;DHT22;13160;51.834;4.706;2022-12-08T15:30:16;5.20;99.90
25214;DHT22;13160;51.834;4.706;2022-12-08T15:32:45;5.10;99.90
25214;DHT22;13160;51.834;4.706;2022-12-08T15:35:19;5.10;99.90
25214;DHT22;13160;51.834;4.706;2022-12-08T15:37:48;5.10;99.90
25214;DHT22;13160;51.834;4.706;2022-12-08T15:40:19;5.00;99.90
25214;DHT22;13160;51.834;4.706;2022-12-08T15:42:51;5.00;99.90
25214;DHT22;13160;51.834;4.706;2022-12-08T15:45:24;5.00;99.90
25214;DHT22;13160;51.834;4.706;2022-12-08T15:47:55;5.00;99.90
25214;DHT22;13160;51.834;4.706;2022-12-08T15:50:25;5.00;99.90
25214;DHT22;13160;51.834;4.706;2022-12-08T15:52:54;4.90;99.90
25214;DHT22;13160;51.834;4.706;2022-12-08T15:55:22;4.90;99.90
25214;DHT22;13160;51.834;4.706;2022-12-08T15:57:52;4.90;99.90
25214;DHT22;13160;51.834;4.706;2022-12-08T16:00:41;4.90;99.90
25214;DHT22;13160;51.834;4.706;2022-12-08T16:03:21;4.80;99.90
25214;DHT22;13160;51.834;4.706;2022-12-08T16:06:16;4.80;99.90
25214;DHT22;13160;51.834;4.706;2022-12-08T16:09:14;4.80;99.90
25214;DHT22;13160;51.834;4.706;2022-12-08T16:11:46;4.80;99.90
25214;DHT22;13160;51.834;4.706;2022-12-08T16:14:37;4.70;99.90
25214;DHT22;13160;51.834;4.706;2022-12-08T16:17:27;4.70;99.90
25214;DHT22;13160;51.834;4.706;2022-12-08T16:19:56;4.70;99.90
25214;DHT22;13160;51.834;4.706;2022-12-08T16:22:28;4.70;99.90
25214;DHT22;13160;51.834;4.706;2022-12-08T16:25:17;4.70;99.90
25214;DHT22;13160;51.834;4.706;2022-12-08T16:27:49;4.60;99.90
25214;DHT22;13160;51.834;4.706;2022-12-08T16:30:39;4.60;99.90
25214;DHT22;13160;51.834;4.706;2022-12-08T16:33:09;4.60;99.90
25214;DHT22;13160;51.834;4.706;2022-12-08T16:35:39;4.60;99.90
25214;DHT22;13160;51.834;4.706;2022-12-08T16:38:13;4.60;99.90